sensor_id;sensor_type;location;lat;lon;timestamp;P1;durP1;ratioP1;P2;durP2;ratioP2
79348;SDS011;68817;48.110;11.660;2023-04-06T00:00:03;13.05;;;7.10;;
79348;SDS011;68817;48.110;11.660;2023-04-06T00:02:34;9.52;;;6.10;;
79348;SDS011;68817;48.110;11.660;2023-04-06T00:05:00;8.57;;;6.13;;
79348;SDS011;68817;48.110;11.660;2023-04-06T00:07:26;8.85;;;5.78;;
79348;SDS011;68817;48.110;11.660;2023-04-06T00:09:53;8.82;;;5.63;;
79348;SDS011;68817;48.110;11.660;2023-04-06T00:12:18;12.30;;;7.03;;
79348;SDS011;68817;48.110;11.660;2023-04-06T00:14:43;10.82;;;6.28;;
79348;SDS011;68817;48.110;11.660;2023-04-06T00:17:09;10.75;;;5.75;;
79348;SDS011;68817;48.110;11.660;2023-04-06T00:19:34;8.35;;;5.88;;
79348;SDS011;68817;48.110;11.660;2023-04-06T00:22:00;10.88;;;6.40;;
79348;SDS011;68817;48.110;11.660;2023-04-06T00:24:27;9.80;;;5.75;;
79348;SDS011;68817;48.110;11.660;2023-04-06T00:26:52;8.65;;;5.97;;
79348;SDS011;68817;48.110;11.660;2023-04-06T00:29:17;9.30;;;5.93;;
79348;SDS011;68817;48.110;11.660;2023-04-06T00:31:43;7.60;;;5.72;;
79348;SDS011;68817;48.110;11.660;2023-04-06T00:34:09;8.82;;;5.78;;
79348;SDS011;68817;48.110;11.660;2023-04-06T00:36:35;7.68;;;5.35;;
79348;SDS011;68817;48.110;11.660;2023-04-06T00:39:00;8.65;;;5.70;;
79348;SDS011;68817;48.110;11.660;2023-04-06T00:41:26;7.95;;;5.57;;
79348;SDS011;68817;48.110;11.660;2023-04-06T00:43:51;8.10;;;5.30;;
79348;SDS011;68817;48.110;11.660;2023-04-06T00:46:18;9.90;;;5.35;;
79348;SDS011;68817;48.110;11.660;2023-04-06T00:48:43;6.53;;;5.57;;
79348;SDS011;68817;48.110;11.660;2023-04-06T00:51:09;8.00;;;5.15;;
79348;SDS011;68817;48.110;11.660;2023-04-06T00:53:35;8.50;;;5.40;;
79348;SDS011;68817;48.110;11.660;2023-04-06T00:56:01;8.68;;;5.85;;
79348;SDS011;68817;48.110;11.660;2023-04-06T00:58:31;9.02;;;5.68;;
79348;SDS011;68817;48.110;11.660;2023-04-06T01:01:04;7.40;;;5.05;;
79348;SDS011;68817;48.110;11.660;2023-04-06T01:03:31;8.05;;;5.03;;
79348;SDS011;68817;48.110;11.660;2023-04-06T01:05:57;8.05;;;4.88;;
79348;SDS011;68817;48.110;11.660;2023-04-06T01:08:28;8.05;;;5.18;;
79348;SDS011;68817;48.110;11.660;2023-04-06T01:11:06;7.22;;;5.05;;
79348;SDS011;68817;48.110;11.660;2023-04-06T01:13:32;6.53;;;5.00;;
79348;SDS011;68817;48.110;11.660;2023-04-06T01:16:00;7.68;;;5.28;;
79348;SDS011;68817;48.110;11.660;2023-04-06T01:18:39;7.95;;;5.35;;
79348;SDS011;68817;48.110;11.660;2023-04-06T01:21:13;6.72;;;4.78;;
79348;SDS011;68817;48.110;11.660;2023-04-06T01:23:47;7.65;;;4.88;;
79348;SDS011;68817;48.110;11.660;2023-04-06T01:26:16;8.95;;;4.82;;
79348;SDS011;68817;48.110;11.660;2023-04-06T01:28:41;7.75;;;5.05;;
79348;SDS011;68817;48.110;11.660;2023-04-06T01:31:23;8.48;;;4.78;;
79348;SDS011;68817;48.110;11.660;2023-04-06T01:33:50;7.15;;;5.00;;
79348;SDS011;68817;48.110;11.660;2023-04-06T01:36:19;10.98;;;4.85;;
79348;SDS011;68817;48.110;11.660;2023-04-06T01:41:18;6.78;;;4.35;;
79348;SDS011;68817;48.110;11.660;2023-04-06T01:43:47;8.68;;;5.20;;
79348;SDS011;68817;48.110;11.660;2023-04-06T01:46:14;8.82;;;4.95;;
79348;SDS011;68817;48.110;11.660;2023-04-06T01:48:41;6.75;;;4.70;;
79348;SDS011;68817;48.110;11.660;2023-04-06T01:51:28;9.40;;;4.85;;
79348;SDS011;68817;48.110;11.660;2023-04-06T01:53:57;5.15;;;3.92;;
79348;SDS011;68817;48.110;11.660;2023-04-06T01:56:32;6.57;;;4.32;;
79348;SDS011;68817;48.110;11.660;2023-04-06T01:59:06;10.73;;;4.82;;
79348;SDS011;68817;48.110;11.660;2023-04-06T02:04:02;9.30;;;4.45;;
79348;SDS011;68817;48.110;11.660;2023-04-06T02:06:28;6.57;;;5.05;;
79348;SDS011;68817;48.110;11.660;2023-04-06T02:08:53;7.38;;;4.63;;
79348;SDS011;68817;48.110;11.660;2023-04-06T02:11:19;5.72;;;4.55;;
79348;SDS011;68817;48.110;11.660;2023-04-06T02:13:48;8.60;;;5.22;;
79348;SDS011;68817;48.110;11.660;2023-04-06T02:16:14;8.63;;;5.03;;
79348;SDS011;68817;48.110;11.660;2023-04-06T02:18:42;5.80;;;4.47;;
79348;SDS011;68817;48.110;11.660;2023-04-06T02:21:07;5.30;;;4.38;;
79348;SDS011;68817;48.110;11.660;2023-04-06T02:23:32;5.68;;;4.53;;
79348;SDS011;68817;48.110;11.660;2023-04-06T02:25:58;6.63;;;4.18;;
79348;SDS011;68817;48.110;11.660;2023-04-06T02:28:23;5.68;;;4.40;;
79348;SDS011;68817;48.110;11.660;2023-04-06T02:30:49;6.38;;;4.00;;
79348;SDS011;68817;48.110;11.660;2023-04-06T02:33:15;5.70;;;4.47;;
79348;SDS011;68817;48.110;11.660;2023-04-06T02:35:44;7.00;;;4.80;;
79348;SDS011;68817;48.110;11.660;2023-04-06T02:38:11;5.97;;;4.50;;
79348;SDS011;68817;48.110;11.660;2023-04-06T02:40:36;6.97;;;4.85;;
79348;SDS011;68817;48.110;11.660;2023-04-06T02:43:13;8.57;;;4.45;;
79348;SDS011;68817;48.110;11.660;2023-04-06T02:45:38;6.30;;;4.50;;
79348;SDS011;68817;48.110;11.660;2023-04-06T02:48:04;8.52;;;4.82;;
79348;SDS011;68817;48.110;11.660;2023-04-06T02:50:31;6.00;;;4.13;;
79348;SDS011;68817;48.110;11.660;2023-04-06T02:53:00;7.95;;;5.10;;
79348;SDS011;68817;48.110;11.660;2023-04-06T02:55:26;8.93;;;5.03;;
79348;SDS011;68817;48.110;11.660;2023-04-06T02:57:51;5.68;;;3.92;;
79348;SDS011;68817;48.110;11.660;2023-04-06T03:00:20;7.43;;;5.07;;
79348;SDS011;68817;48.110;11.660;2023-04-06T03:02:46;7.32;;;4.90;;
79348;SDS011;68817;48.110;11.660;2023-04-06T03:05:14;7.68;;;4.53;;
79348;SDS011;68817;48.110;11.660;2023-04-06T03:07:42;6.05;;;4.43;;
79348;SDS011;68817;48.110;11.660;2023-04-06T03:10:13;7.50;;;4.00;;
79348;SDS011;68817;48.110;11.660;2023-04-06T03:12:39;4.65;;;3.83;;
79348;SDS011;68817;48.110;11.660;2023-04-06T03:15:16;5.18;;;4.35;;
79348;SDS011;68817;48.110;11.660;2023-04-06T03:17:46;6.78;;;4.47;;
79348;SDS011;68817;48.110;11.660;2023-04-06T03:20:27;7.95;;;4.85;;
79348;SDS011;68817;48.110;11.660;2023-04-06T03:22:53;7.30;;;4.38;;
79348;SDS011;68817;48.110;11.660;2023-04-06T03:25:23;7.70;;;4.60;;
79348;SDS011;68817;48.110;11.660;2023-04-06T03:27:48;6.43;;;4.15;;
79348;SDS011;68817;48.110;11.660;2023-04-06T03:30:17;6.40;;;4.53;;
79348;SDS011;68817;48.110;11.660;2023-04-06T03:32:46;5.68;;;4.25;;
79348;SDS011;68817;48.110;11.660;2023-04-06T03:35:11;6.03;;;4.57;;
79348;SDS011;68817;48.110;11.660;2023-04-06T03:37:36;9.32;;;4.50;;
79348;SDS011;68817;48.110;11.660;2023-04-06T03:40:04;7.30;;;5.38;;
79348;SDS011;68817;48.110;11.660;2023-04-06T03:42:30;5.97;;;4.30;;
79348;SDS011;68817;48.110;11.660;2023-04-06T03:47:26;5.05;;;4.13;;
79348;SDS011;68817;48.110;11.660;2023-04-06T03:49:56;5.22;;;4.15;;
79348;SDS011;68817;48.110;11.660;2023-04-06T03:52:21;7.57;;;4.10;;
79348;SDS011;68817;48.110;11.660;2023-04-06T03:54:49;7.28;;;4.45;;
79348;SDS011;68817;48.110;11.660;2023-04-06T03:57:15;6.28;;;4.15;;
79348;SDS011;68817;48.110;11.660;2023-04-06T03:59:40;6.95;;;4.85;;
79348;SDS011;68817;48.110;11.660;2023-04-06T04:02:06;7.05;;;4.35;;
79348;SDS011;68817;48.110;11.660;2023-04-06T04:04:31;5.45;;;4.30;;
79348;SDS011;68817;48.110;11.660;2023-04-06T04:06:57;7.43;;;4.68;;
79348;SDS011;68817;48.110;11.660;2023-04-06T04:09:22;6.28;;;4.82;;
79348;SDS011;68817;48.110;11.660;2023-04-06T04:11:49;7.57;;;3.95;;
79348;SDS011;68817;48.110;11.660;2023-04-06T04:14:14;8.80;;;4.25;;
79348;SDS011;68817;48.110;11.660;2023-04-06T04:16:40;9.25;;;4.65;;
79348;SDS011;68817;48.110;11.660;2023-04-06T04:19:06;6.50;;;4.75;;
79348;SDS011;68817;48.110;11.660;2023-04-06T04:21:32;7.13;;;4.60;;
79348;SDS011;68817;48.110;11.660;2023-04-06T04:24:02;7.03;;;4.38;;
79348;SDS011;68817;48.110;11.660;2023-04-06T04:26:27;6.18;;;4.55;;
79348;SDS011;68817;48.110;11.660;2023-04-06T04:28:53;6.82;;;4.30;;
79348;SDS011;68817;48.110;11.660;2023-04-06T04:31:18;9.63;;;5.05;;
79348;SDS011;68817;48.110;11.660;2023-04-06T04:33:49;7.43;;;4.75;;
79348;SDS011;68817;48.110;11.660;2023-04-06T04:36:23;7.60;;;4.80;;
79348;SDS011;68817;48.110;11.660;2023-04-06T04:38:49;5.75;;;4.63;;
79348;SDS011;68817;48.110;11.660;2023-04-06T04:41:14;10.75;;;5.35;;
79348;SDS011;68817;48.110;11.660;2023-04-06T04:43:42;5.95;;;4.60;;
79348;SDS011;68817;48.110;11.660;2023-04-06T04:46:09;7.65;;;4.63;;
79348;SDS011;68817;48.110;11.660;2023-04-06T04:48:40;6.45;;;4.63;;
79348;SDS011;68817;48.110;11.660;2023-04-06T04:51:07;6.45;;;4.70;;
79348;SDS011;68817;48.110;11.660;2023-04-06T04:53:45;5.85;;;4.00;;
79348;SDS011;68817;48.110;11.660;2023-04-06T04:56:19;6.38;;;4.35;;
79348;SDS011;68817;48.110;11.660;2023-04-06T04:58:48;9.77;;;4.38;;
79348;SDS011;68817;48.110;11.660;2023-04-06T05:01:13;6.88;;;4.28;;
79348;SDS011;68817;48.110;11.660;2023-04-06T05:03:41;15.02;;;5.07;;
79348;SDS011;68817;48.110;11.660;2023-04-06T05:06:11;5.93;;;4.63;;
79348;SDS011;68817;48.110;11.660;2023-04-06T05:08:38;6.68;;;4.97;;
79348;SDS011;68817;48.110;11.660;2023-04-06T05:11:04;9.20;;;4.88;;
79348;SDS011;68817;48.110;11.660;2023-04-06T05:13:34;6.93;;;4.43;;
79348;SDS011;68817;48.110;11.660;2023-04-06T05:18:32;7.10;;;4.43;;
79348;SDS011;68817;48.110;11.660;2023-04-06T05:20:59;9.18;;;4.57;;
79348;SDS011;68817;48.110;11.660;2023-04-06T05:23:33;13.68;;;5.13;;
79348;SDS011;68817;48.110;11.660;2023-04-06T05:26:01;9.52;;;5.40;;
79348;SDS011;68817;48.110;11.660;2023-04-06T05:28:26;7.65;;;5.20;;
79348;SDS011;68817;48.110;11.660;2023-04-06T05:30:52;7.88;;;5.30;;
79348;SDS011;68817;48.110;11.660;2023-04-06T05:33:18;8.63;;;4.97;;
79348;SDS011;68817;48.110;11.660;2023-04-06T05:35:56;6.93;;;4.65;;
79348;SDS011;68817;48.110;11.660;2023-04-06T05:38:22;7.57;;;5.28;;
79348;SDS011;68817;48.110;11.660;2023-04-06T05:40:48;8.70;;;4.78;;
79348;SDS011;68817;48.110;11.660;2023-04-06T05:43:16;9.27;;;5.05;;
79348;SDS011;68817;48.110;11.660;2023-04-06T05:45:45;6.40;;;5.07;;
79348;SDS011;68817;48.110;11.660;2023-04-06T05:48:11;7.05;;;4.85;;
79348;SDS011;68817;48.110;11.660;2023-04-06T05:50:36;6.43;;;5.07;;
79348;SDS011;68817;48.110;11.660;2023-04-06T05:53:02;7.43;;;4.95;;
79348;SDS011;68817;48.110;11.660;2023-04-06T05:55:33;8.75;;;4.72;;
79348;SDS011;68817;48.110;11.660;2023-04-06T05:58:08;7.75;;;4.72;;
79348;SDS011;68817;48.110;11.660;2023-04-06T06:00:34;11.85;;;5.53;;
79348;SDS011;68817;48.110;11.660;2023-04-06T06:03:04;8.90;;;4.80;;
79348;SDS011;68817;48.110;11.660;2023-04-06T06:05:31;7.55;;;4.70;;
79348;SDS011;68817;48.110;11.660;2023-04-06T06:08:03;6.93;;;4.32;;
79348;SDS011;68817;48.110;11.660;2023-04-06T06:10:28;7.45;;;4.63;;
79348;SDS011;68817;48.110;11.660;2023-04-06T06:12:54;6.55;;;4.75;;
79348;SDS011;68817;48.110;11.660;2023-04-06T06:15:20;7.00;;;4.45;;
79348;SDS011;68817;48.110;11.660;2023-04-06T06:17:47;10.23;;;5.13;;
79348;SDS011;68817;48.110;11.660;2023-04-06T06:20:12;6.93;;;4.45;;
79348;SDS011;68817;48.110;11.660;2023-04-06T06:22:38;16.58;;;4.95;;
79348;SDS011;68817;48.110;11.660;2023-04-06T06:25:06;5.38;;;4.13;;
79348;SDS011;68817;48.110;11.660;2023-04-06T06:27:32;7.03;;;5.15;;
79348;SDS011;68817;48.110;11.660;2023-04-06T06:29:57;11.15;;;5.28;;
79348;SDS011;68817;48.110;11.660;2023-04-06T06:32:23;8.77;;;4.30;;
79348;SDS011;68817;48.110;11.660;2023-04-06T06:34:51;8.15;;;4.63;;
79348;SDS011;68817;48.110;11.660;2023-04-06T06:37:18;5.20;;;4.70;;
79348;SDS011;68817;48.110;11.660;2023-04-06T06:39:43;8.65;;;5.05;;
79348;SDS011;68817;48.110;11.660;2023-04-06T06:42:09;7.97;;;4.75;;
79348;SDS011;68817;48.110;11.660;2023-04-06T06:44:50;8.43;;;4.82;;
79348;SDS011;68817;48.110;11.660;2023-04-06T06:47:16;7.00;;;4.55;;
79348;SDS011;68817;48.110;11.660;2023-04-06T06:49:43;8.98;;;4.82;;
79348;SDS011;68817;48.110;11.660;2023-04-06T06:52:08;10.48;;;5.03;;
79348;SDS011;68817;48.110;11.660;2023-04-06T06:54:33;9.07;;;4.97;;
79348;SDS011;68817;48.110;11.660;2023-04-06T06:56:59;7.10;;;4.53;;
79348;SDS011;68817;48.110;11.660;2023-04-06T06:59:25;6.82;;;4.97;;
79348;SDS011;68817;48.110;11.660;2023-04-06T07:01:52;7.47;;;5.15;;
79348;SDS011;68817;48.110;11.660;2023-04-06T07:04:18;7.35;;;4.63;;
79348;SDS011;68817;48.110;11.660;2023-04-06T07:06:44;6.72;;;4.88;;
79348;SDS011;68817;48.110;11.660;2023-04-06T07:09:09;7.13;;;4.82;;
79348;SDS011;68817;48.110;11.660;2023-04-06T07:11:35;7.43;;;4.53;;
79348;SDS011;68817;48.110;11.660;2023-04-06T07:14:00;6.88;;;4.78;;
79348;SDS011;68817;48.110;11.660;2023-04-06T07:16:26;5.50;;;4.68;;
79348;SDS011;68817;48.110;11.660;2023-04-06T07:18:53;6.88;;;4.63;;
79348;SDS011;68817;48.110;11.660;2023-04-06T07:21:18;7.63;;;4.07;;
79348;SDS011;68817;48.110;11.660;2023-04-06T07:23:44;7.63;;;4.15;;
79348;SDS011;68817;48.110;11.660;2023-04-06T07:26:09;7.38;;;4.65;;
79348;SDS011;68817;48.110;11.660;2023-04-06T07:28:36;6.38;;;4.50;;
79348;SDS011;68817;48.110;11.660;2023-04-06T07:31:02;6.35;;;4.40;;
79348;SDS011;68817;48.110;11.660;2023-04-06T07:33:28;6.22;;;4.40;;
79348;SDS011;68817;48.110;11.660;2023-04-06T07:35:55;6.28;;;4.47;;
79348;SDS011;68817;48.110;11.660;2023-04-06T07:38:21;7.10;;;4.50;;
79348;SDS011;68817;48.110;11.660;2023-04-06T07:40:48;7.28;;;4.40;;
79348;SDS011;68817;48.110;11.660;2023-04-06T07:43:14;5.35;;;4.40;;
79348;SDS011;68817;48.110;11.660;2023-04-06T07:45:40;6.13;;;4.28;;
79348;SDS011;68817;48.110;11.660;2023-04-06T07:48:05;5.45;;;4.38;;
79348;SDS011;68817;48.110;11.660;2023-04-06T07:50:32;6.70;;;4.40;;
79348;SDS011;68817;48.110;11.660;2023-04-06T07:52:57;5.25;;;4.75;;
79348;SDS011;68817;48.110;11.660;2023-04-06T07:55:23;5.80;;;4.82;;
79348;SDS011;68817;48.110;11.660;2023-04-06T07:57:48;7.35;;;4.70;;
79348;SDS011;68817;48.110;11.660;2023-04-06T08:00:14;7.03;;;4.78;;
79348;SDS011;68817;48.110;11.660;2023-04-06T08:02:39;7.28;;;5.10;;
79348;SDS011;68817;48.110;11.660;2023-04-06T08:05:05;6.55;;;5.00;;
79348;SDS011;68817;48.110;11.660;2023-04-06T08:07:30;5.32;;;4.63;;
79348;SDS011;68817;48.110;11.660;2023-04-06T08:09:56;7.20;;;5.40;;
79348;SDS011;68817;48.110;11.660;2023-04-06T08:12:21;8.13;;;5.47;;
79348;SDS011;68817;48.110;11.660;2023-04-06T08:14:47;6.68;;;4.95;;
79348;SDS011;68817;48.110;11.660;2023-04-06T08:17:12;5.35;;;4.78;;
79348;SDS011;68817;48.110;11.660;2023-04-06T08:19:38;6.50;;;4.45;;
79348;SDS011;68817;48.110;11.660;2023-04-06T08:22:03;6.03;;;4.85;;
79348;SDS011;68817;48.110;11.660;2023-04-06T08:24:29;6.07;;;4.70;;
79348;SDS011;68817;48.110;11.660;2023-04-06T08:26:55;5.10;;;4.57;;
79348;SDS011;68817;48.110;11.660;2023-04-06T08:29:20;6.22;;;4.72;;
79348;SDS011;68817;48.110;11.660;2023-04-06T08:31:46;6.07;;;5.25;;
79348;SDS011;68817;48.110;11.660;2023-04-06T08:34:11;6.10;;;5.50;;
79348;SDS011;68817;48.110;11.660;2023-04-06T08:36:37;6.93;;;5.22;;
79348;SDS011;68817;48.110;11.660;2023-04-06T08:39:02;8.02;;;5.18;;
79348;SDS011;68817;48.110;11.660;2023-04-06T08:41:28;6.28;;;5.20;;
79348;SDS011;68817;48.110;11.660;2023-04-06T08:43:57;5.88;;;4.63;;
79348;SDS011;68817;48.110;11.660;2023-04-06T08:46:26;6.88;;;5.07;;
79348;SDS011;68817;48.110;11.660;2023-04-06T08:48:56;5.40;;;4.90;;
79348;SDS011;68817;48.110;11.660;2023-04-06T08:51:23;5.65;;;5.07;;
79348;SDS011;68817;48.110;11.660;2023-04-06T08:53:51;7.45;;;5.25;;
79348;SDS011;68817;48.110;11.660;2023-04-06T08:56:19;7.60;;;5.40;;
79348;SDS011;68817;48.110;11.660;2023-04-06T08:58:46;5.53;;;4.95;;
79348;SDS011;68817;48.110;11.660;2023-04-06T09:01:12;6.18;;;5.18;;
79348;SDS011;68817;48.110;11.660;2023-04-06T09:03:40;6.95;;;6.25;;
79348;SDS011;68817;48.110;11.660;2023-04-06T09:06:05;6.10;;;5.50;;
79348;SDS011;68817;48.110;11.660;2023-04-06T09:08:35;6.63;;;5.75;;
79348;SDS011;68817;48.110;11.660;2023-04-06T09:11:05;7.20;;;5.38;;
79348;SDS011;68817;48.110;11.660;2023-04-06T09:13:31;6.50;;;5.78;;
79348;SDS011;68817;48.110;11.660;2023-04-06T09:16:03;6.72;;;6.03;;
79348;SDS011;68817;48.110;11.660;2023-04-06T09:18:30;7.22;;;5.68;;
79348;SDS011;68817;48.110;11.660;2023-04-06T09:20:57;6.15;;;5.55;;
79348;SDS011;68817;48.110;11.660;2023-04-06T09:23:23;6.68;;;5.22;;
79348;SDS011;68817;48.110;11.660;2023-04-06T09:25:48;7.85;;;5.93;;
79348;SDS011;68817;48.110;11.660;2023-04-06T09:28:14;6.72;;;5.20;;
79348;SDS011;68817;48.110;11.660;2023-04-06T09:30:47;7.10;;;5.70;;
79348;SDS011;68817;48.110;11.660;2023-04-06T09:33:13;7.18;;;6.20;;
79348;SDS011;68817;48.110;11.660;2023-04-06T09:35:50;6.15;;;5.55;;
79348;SDS011;68817;48.110;11.660;2023-04-06T09:38:16;6.40;;;5.72;;
79348;SDS011;68817;48.110;11.660;2023-04-06T09:40:49;7.75;;;6.05;;
79348;SDS011;68817;48.110;11.660;2023-04-06T09:43:23;7.00;;;6.10;;
79348;SDS011;68817;48.110;11.660;2023-04-06T09:45:51;6.63;;;6.03;;
79348;SDS011;68817;48.110;11.660;2023-04-06T09:48:17;6.35;;;5.80;;
79348;SDS011;68817;48.110;11.660;2023-04-06T09:50:44;7.50;;;5.70;;
79348;SDS011;68817;48.110;11.660;2023-04-06T09:53:10;8.30;;;6.57;;
79348;SDS011;68817;48.110;11.660;2023-04-06T09:55:45;6.43;;;5.72;;
79348;SDS011;68817;48.110;11.660;2023-04-06T09:58:15;10.48;;;6.30;;
79348;SDS011;68817;48.110;11.660;2023-04-06T10:00:47;6.63;;;5.80;;
79348;SDS011;68817;48.110;11.660;2023-04-06T10:06:04;6.75;;;6.00;;
79348;SDS011;68817;48.110;11.660;2023-04-06T10:08:31;7.38;;;6.05;;
79348;SDS011;68817;48.110;11.660;2023-04-06T10:10:58;8.55;;;6.13;;
79348;SDS011;68817;48.110;11.660;2023-04-06T10:13:23;7.53;;;6.10;;
79348;SDS011;68817;48.110;11.660;2023-04-06T10:15:50;7.00;;;5.93;;
79348;SDS011;68817;48.110;11.660;2023-04-06T10:18:16;9.07;;;7.15;;
79348;SDS011;68817;48.110;11.660;2023-04-06T10:20:43;6.70;;;6.00;;
79348;SDS011;68817;48.110;11.660;2023-04-06T10:23:19;7.32;;;6.18;;
79348;SDS011;68817;48.110;11.660;2023-04-06T10:25:54;7.30;;;6.25;;
79348;SDS011;68817;48.110;11.660;2023-04-06T10:28:24;6.50;;;5.75;;
79348;SDS011;68817;48.110;11.660;2023-04-06T10:30:56;7.97;;;6.03;;
79348;SDS011;68817;48.110;11.660;2023-04-06T10:33:22;8.13;;;6.45;;
79348;SDS011;68817;48.110;11.660;2023-04-06T10:35:48;9.23;;;6.97;;
79348;SDS011;68817;48.110;11.660;2023-04-06T10:38:13;7.75;;;6.13;;
79348;SDS011;68817;48.110;11.660;2023-04-06T10:40:39;48.70;;;8.70;;
79348;SDS011;68817;48.110;11.660;2023-04-06T10:43:11;8.52;;;5.93;;
79348;SDS011;68817;48.110;11.660;2023-04-06T10:45:38;9.52;;;6.40;;
79348;SDS011;68817;48.110;11.660;2023-04-06T10:48:14;34.10;;;7.80;;
79348;SDS011;68817;48.110;11.660;2023-04-06T10:50:41;28.42;;;7.10;;
79348;SDS011;68817;48.110;11.660;2023-04-06T10:53:09;33.10;;;7.43;;
79348;SDS011;68817;48.110;11.660;2023-04-06T10:55:35;8.50;;;6.07;;
79348;SDS011;68817;48.110;11.660;2023-04-06T10:58:05;6.25;;;5.20;;
79348;SDS011;68817;48.110;11.660;2023-04-06T11:00:32;6.97;;;5.47;;
79348;SDS011;68817;48.110;11.660;2023-04-06T11:03:00;7.18;;;5.15;;
79348;SDS011;68817;48.110;11.660;2023-04-06T11:05:27;6.97;;;6.22;;
79348;SDS011;68817;48.110;11.660;2023-04-06T11:07:52;7.32;;;5.88;;
79348;SDS011;68817;48.110;11.660;2023-04-06T11:10:21;7.25;;;5.75;;
79348;SDS011;68817;48.110;11.660;2023-04-06T11:12:52;6.82;;;5.55;;
79348;SDS011;68817;48.110;11.660;2023-04-06T11:15:18;6.32;;;5.55;;
79348;SDS011;68817;48.110;11.660;2023-04-06T11:17:43;6.30;;;5.38;;
79348;SDS011;68817;48.110;11.660;2023-04-06T11:20:11;6.90;;;5.30;;
79348;SDS011;68817;48.110;11.660;2023-04-06T11:22:47;6.63;;;5.55;;
79348;SDS011;68817;48.110;11.660;2023-04-06T11:25:16;8.63;;;5.60;;
79348;SDS011;68817;48.110;11.660;2023-04-06T11:27:42;6.55;;;5.18;;
79348;SDS011;68817;48.110;11.660;2023-04-06T11:30:07;5.75;;;5.07;;
79348;SDS011;68817;48.110;11.660;2023-04-06T11:32:40;5.82;;;5.15;;
79348;SDS011;68817;48.110;11.660;2023-04-06T11:35:10;7.35;;;5.80;;
79348;SDS011;68817;48.110;11.660;2023-04-06T11:37:36;8.23;;;5.90;;
79348;SDS011;68817;48.110;11.660;2023-04-06T11:40:02;7.00;;;5.53;;
79348;SDS011;68817;48.110;11.660;2023-04-06T11:42:28;7.97;;;5.45;;
79348;SDS011;68817;48.110;11.660;2023-04-06T11:44:57;7.60;;;5.50;;
79348;SDS011;68817;48.110;11.660;2023-04-06T11:47:27;10.35;;;5.60;;
79348;SDS011;68817;48.110;11.660;2023-04-06T11:49:53;7.05;;;5.70;;
79348;SDS011;68817;48.110;11.660;2023-04-06T11:54:48;7.57;;;6.20;;
79348;SDS011;68817;48.110;11.660;2023-04-06T11:57:14;9.23;;;5.43;;
79348;SDS011;68817;48.110;11.660;2023-04-06T11:59:41;15.90;;;5.32;;
79348;SDS011;68817;48.110;11.660;2023-04-06T12:02:07;8.52;;;5.35;;
79348;SDS011;68817;48.110;11.660;2023-04-06T12:04:33;11.80;;;5.35;;
79348;SDS011;68817;48.110;11.660;2023-04-06T12:06:58;8.30;;;5.30;;
79348;SDS011;68817;48.110;11.660;2023-04-06T12:09:24;6.88;;;5.25;;
79348;SDS011;68817;48.110;11.660;2023-04-06T12:11:50;6.13;;;5.53;;
79348;SDS011;68817;48.110;11.660;2023-04-06T12:14:15;6.85;;;4.95;;
79348;SDS011;68817;48.110;11.660;2023-04-06T12:16:41;5.80;;;4.68;;
79348;SDS011;68817;48.110;11.660;2023-04-06T12:19:06;7.10;;;4.93;;
79348;SDS011;68817;48.110;11.660;2023-04-06T12:21:32;4.80;;;4.32;;
79348;SDS011;68817;48.110;11.660;2023-04-06T12:24:00;5.32;;;4.63;;
79348;SDS011;68817;48.110;11.660;2023-04-06T12:26:25;7.00;;;4.55;;
79348;SDS011;68817;48.110;11.660;2023-04-06T12:28:51;10.13;;;4.65;;
79348;SDS011;68817;48.110;11.660;2023-04-06T12:31:17;8.25;;;5.43;;
79348;SDS011;68817;48.110;11.660;2023-04-06T12:33:45;6.75;;;5.00;;
79348;SDS011;68817;48.110;11.660;2023-04-06T12:36:14;5.47;;;4.60;;
79348;SDS011;68817;48.110;11.660;2023-04-06T12:38:41;5.97;;;4.65;;
79348;SDS011;68817;48.110;11.660;2023-04-06T12:41:06;5.43;;;4.70;;
79348;SDS011;68817;48.110;11.660;2023-04-06T12:43:32;6.65;;;5.15;;
79348;SDS011;68817;48.110;11.660;2023-04-06T12:45:57;6.18;;;5.18;;
79348;SDS011;68817;48.110;11.660;2023-04-06T12:48:23;7.97;;;5.18;;
79348;SDS011;68817;48.110;11.660;2023-04-06T12:50:58;6.18;;;4.82;;
79348;SDS011;68817;48.110;11.660;2023-04-06T12:53:25;7.57;;;4.90;;
79348;SDS011;68817;48.110;11.660;2023-04-06T12:55:50;7.28;;;4.88;;
79348;SDS011;68817;48.110;11.660;2023-04-06T12:58:16;5.75;;;4.80;;
79348;SDS011;68817;48.110;11.660;2023-04-06T13:00:42;5.72;;;4.60;;
79348;SDS011;68817;48.110;11.660;2023-04-06T13:03:07;5.13;;;4.05;;
79348;SDS011;68817;48.110;11.660;2023-04-06T13:05:33;6.03;;;4.28;;
79348;SDS011;68817;48.110;11.660;2023-04-06T13:07:58;6.63;;;4.30;;
79348;SDS011;68817;48.110;11.660;2023-04-06T13:10:23;4.18;;;3.72;;
79348;SDS011;68817;48.110;11.660;2023-04-06T13:12:49;5.55;;;4.07;;
79348;SDS011;68817;48.110;11.660;2023-04-06T13:15:14;5.43;;;4.20;;
79348;SDS011;68817;48.110;11.660;2023-04-06T13:17:40;5.65;;;4.20;;
79348;SDS011;68817;48.110;11.660;2023-04-06T13:20:06;7.18;;;4.70;;
79348;SDS011;68817;48.110;11.660;2023-04-06T13:22:31;7.43;;;4.40;;
79348;SDS011;68817;48.110;11.660;2023-04-06T13:24:57;5.47;;;4.38;;
79348;SDS011;68817;48.110;11.660;2023-04-06T13:27:22;5.68;;;5.07;;
79348;SDS011;68817;48.110;11.660;2023-04-06T13:29:47;6.53;;;4.55;;
79348;SDS011;68817;48.110;11.660;2023-04-06T13:32:13;7.22;;;4.80;;
79348;SDS011;68817;48.110;11.660;2023-04-06T13:34:38;8.55;;;4.70;;
79348;SDS011;68817;48.110;11.660;2023-04-06T13:37:05;6.35;;;4.63;;
79348;SDS011;68817;48.110;11.660;2023-04-06T13:39:31;6.32;;;4.30;;
79348;SDS011;68817;48.110;11.660;2023-04-06T13:41:56;6.90;;;4.90;;
79348;SDS011;68817;48.110;11.660;2023-04-06T13:44:22;6.97;;;4.50;;
79348;SDS011;68817;48.110;11.660;2023-04-06T13:46:47;7.07;;;4.57;;
79348;SDS011;68817;48.110;11.660;2023-04-06T13:49:13;5.63;;;4.47;;
79348;SDS011;68817;48.110;11.660;2023-04-06T13:51:38;5.35;;;4.50;;
79348;SDS011;68817;48.110;11.660;2023-04-06T13:54:04;7.30;;;4.10;;
79348;SDS011;68817;48.110;11.660;2023-04-06T13:56:30;5.88;;;4.35;;
79348;SDS011;68817;48.110;11.660;2023-04-06T13:58:55;7.93;;;4.82;;
79348;SDS011;68817;48.110;11.660;2023-04-06T14:01:21;5.53;;;4.40;;
79348;SDS011;68817;48.110;11.660;2023-04-06T14:03:47;7.00;;;4.50;;
79348;SDS011;68817;48.110;11.660;2023-04-06T14:06:13;5.13;;;4.47;;
79348;SDS011;68817;48.110;11.660;2023-04-06T14:08:39;8.30;;;4.57;;
79348;SDS011;68817;48.110;11.660;2023-04-06T14:11:06;6.95;;;4.82;;
79348;SDS011;68817;48.110;11.660;2023-04-06T14:13:33;5.22;;;4.43;;
79348;SDS011;68817;48.110;11.660;2023-04-06T14:15:59;6.25;;;4.22;;
79348;SDS011;68817;48.110;11.660;2023-04-06T14:18:24;5.15;;;4.20;;
79348;SDS011;68817;48.110;11.660;2023-04-06T14:20:53;5.35;;;4.35;;
79348;SDS011;68817;48.110;11.660;2023-04-06T14:23:20;5.43;;;4.35;;
79348;SDS011;68817;48.110;11.660;2023-04-06T14:25:46;6.63;;;4.30;;
79348;SDS011;68817;48.110;11.660;2023-04-06T14:28:11;5.38;;;4.25;;
79348;SDS011;68817;48.110;11.660;2023-04-06T14:30:37;6.90;;;4.53;;
79348;SDS011;68817;48.110;11.660;2023-04-06T14:33:03;5.45;;;3.88;;
79348;SDS011;68817;48.110;11.660;2023-04-06T14:35:28;5.75;;;4.13;;
79348;SDS011;68817;48.110;11.660;2023-04-06T14:37:55;5.38;;;4.60;;
79348;SDS011;68817;48.110;11.660;2023-04-06T14:40:23;6.50;;;4.80;;
79348;SDS011;68817;48.110;11.660;2023-04-06T14:42:48;5.88;;;4.40;;
79348;SDS011;68817;48.110;11.660;2023-04-06T14:45:15;5.40;;;4.80;;
79348;SDS011;68817;48.110;11.660;2023-04-06T14:47:42;6.78;;;4.70;;